sensor_id;sensor_type;location;lat;lon;timestamp;P1;durP1;ratioP1;P2;durP2;ratioP2
32399;SDS011;45045;45.440;9.178;2022-12-10T00:01:39;19.35;;;16.00;;
32399;SDS011;45045;45.440;9.178;2022-12-10T00:04:06;17.45;;;14.82;;
32399;SDS011;45045;45.440;9.178;2022-12-10T00:06:33;20.00;;;15.82;;
32399;SDS011;45045;45.440;9.178;2022-12-10T00:09:00;19.45;;;15.13;;
32399;SDS011;45045;45.440;9.178;2022-12-10T00:11:27;23.23;;;18.23;;
32399;SDS011;45045;45.440;9.178;2022-12-10T00:13:53;20.75;;;16.20;;
32399;SDS011;45045;45.440;9.178;2022-12-10T00:16:20;20.73;;;16.27;;
32399;SDS011;45045;45.440;9.178;2022-12-10T00:18:48;19.27;;;16.67;;
32399;SDS011;45045;45.440;9.178;2022-12-10T00:21:16;21.17;;;16.60;;
32399;SDS011;45045;45.440;9.178;2022-12-10T00:23:43;20.30;;;16.33;;
32399;SDS011;45045;45.440;9.178;2022-12-10T00:26:10;26.83;;;20.33;;
32399;SDS011;45045;45.440;9.178;2022-12-10T00:28:38;28.70;;;20.48;;
32399;SDS011;45045;45.440;9.178;2022-12-10T00:31:14;20.95;;;16.75;;
32399;SDS011;45045;45.440;9.178;2022-12-10T00:33:47;21.13;;;16.10;;
32399;SDS011;45045;45.440;9.178;2022-12-10T00:36:16;31.08;;;21.80;;
32399;SDS011;45045;45.440;9.178;2022-12-10T00:38:45;25.70;;;19.58;;
32399;SDS011;45045;45.440;9.178;2022-12-10T00:41:11;29.45;;;20.33;;
32399;SDS011;45045;45.440;9.178;2022-12-10T00:43:37;24.27;;;17.83;;
32399;SDS011;45045;45.440;9.178;2022-12-10T00:46:03;31.38;;;22.05;;
32399;SDS011;45045;45.440;9.178;2022-12-10T00:48:30;23.20;;;19.08;;
32399;SDS011;45045;45.440;9.178;2022-12-10T00:53:26;30.52;;;21.85;;
32399;SDS011;45045;45.440;9.178;2022-12-10T00:55:53;26.75;;;20.00;;
32399;SDS011;45045;45.440;9.178;2022-12-10T00:58:19;24.42;;;18.60;;
32399;SDS011;45045;45.440;9.178;2022-12-10T01:00:46;23.80;;;18.92;;
32399;SDS011;45045;45.440;9.178;2022-12-10T01:03:12;20.55;;;16.80;;
32399;SDS011;45045;45.440;9.178;2022-12-10T01:05:38;22.00;;;17.00;;
32399;SDS011;45045;45.440;9.178;2022-12-10T01:08:04;23.05;;;18.70;;
32399;SDS011;45045;45.440;9.178;2022-12-10T01:10:29;22.05;;;17.25;;
32399;SDS011;45045;45.440;9.178;2022-12-10T01:12:55;22.85;;;18.02;;
32399;SDS011;45045;45.440;9.178;2022-12-10T01:15:21;20.60;;;16.77;;
32399;SDS011;45045;45.440;9.178;2022-12-10T01:17:46;22.55;;;17.85;;
32399;SDS011;45045;45.440;9.178;2022-12-10T01:20:12;22.67;;;17.90;;
32399;SDS011;45045;45.440;9.178;2022-12-10T01:22:37;24.73;;;18.75;;
32399;SDS011;45045;45.440;9.178;2022-12-10T01:25:03;22.75;;;18.80;;
32399;SDS011;45045;45.440;9.178;2022-12-10T01:27:29;23.13;;;19.10;;
32399;SDS011;45045;45.440;9.178;2022-12-10T01:29:56;21.73;;;17.70;;
32399;SDS011;45045;45.440;9.178;2022-12-10T01:32:21;24.60;;;18.70;;
32399;SDS011;45045;45.440;9.178;2022-12-10T01:34:47;28.52;;;19.15;;
32399;SDS011;45045;45.440;9.178;2022-12-10T01:37:13;23.98;;;19.23;;
32399;SDS011;45045;45.440;9.178;2022-12-10T01:39:38;23.10;;;18.75;;
32399;SDS011;45045;45.440;9.178;2022-12-10T01:42:04;24.27;;;19.33;;
32399;SDS011;45045;45.440;9.178;2022-12-10T01:46:56;20.98;;;18.02;;
32399;SDS011;45045;45.440;9.178;2022-12-10T01:49:31;22.88;;;18.55;;
32399;SDS011;45045;45.440;9.178;2022-12-10T01:51:59;24.08;;;18.88;;
32399;SDS011;45045;45.440;9.178;2022-12-10T01:54:30;21.50;;;18.25;;
32399;SDS011;45045;45.440;9.178;2022-12-10T01:56:58;21.40;;;17.85;;
32399;SDS011;45045;45.440;9.178;2022-12-10T01:59:36;20.92;;;17.75;;
32399;SDS011;45045;45.440;9.178;2022-12-10T02:02:24;20.67;;;17.45;;
32399;SDS011;45045;45.440;9.178;2022-12-10T02:16:11;23.50;;;18.98;;
32399;SDS011;45045;45.440;9.178;2022-12-10T02:18:48;22.98;;;18.98;;
32399;SDS011;45045;45.440;9.178;2022-12-10T02:21:19;23.58;;;19.17;;
32399;SDS011;45045;45.440;9.178;2022-12-10T02:23:54;24.63;;;20.85;;
32399;SDS011;45045;45.440;9.178;2022-12-10T02:26:42;24.13;;;21.13;;
32399;SDS011;45045;45.440;9.178;2022-12-10T02:29:29;25.65;;;20.70;;
32399;SDS011;45045;45.440;9.178;2022-12-10T02:34:22;27.92;;;22.23;;
32399;SDS011;45045;45.440;9.178;2022-12-10T02:36:50;29.45;;;23.30;;
32399;SDS011;45045;45.440;9.178;2022-12-10T02:39:23;28.10;;;22.75;;
32399;SDS011;45045;45.440;9.178;2022-12-10T02:41:53;27.67;;;22.65;;
32399;SDS011;45045;45.440;9.178;2022-12-10T02:44:19;30.23;;;24.67;;
32399;SDS011;45045;45.440;9.178;2022-12-10T02:46:49;28.73;;;23.17;;
32399;SDS011;45045;45.440;9.178;2022-12-10T02:49:17;29.30;;;23.48;;
32399;SDS011;45045;45.440;9.178;2022-12-10T02:51:43;31.52;;;24.55;;
32399;SDS011;45045;45.440;9.178;2022-12-10T03:02:28;31.83;;;24.87;;
32399;SDS011;45045;45.440;9.178;2022-12-10T03:05:03;34.65;;;25.85;;
32399;SDS011;45045;45.440;9.178;2022-12-10T03:08:24;32.78;;;25.52;;
32399;SDS011;45045;45.440;9.178;2022-12-10T03:10:35;31.83;;;25.35;;
32399;SDS011;45045;45.440;9.178;2022-12-10T03:13:09;34.00;;;26.17;;
32399;SDS011;45045;45.440;9.178;2022-12-10T03:15:38;33.63;;;26.05;;
32399;SDS011;45045;45.440;9.178;2022-12-10T03:18:06;34.13;;;26.75;;
32399;SDS011;45045;45.440;9.178;2022-12-10T03:20:34;34.88;;;26.95;;
32399;SDS011;45045;45.440;9.178;2022-12-10T03:23:07;32.70;;;26.45;;
32399;SDS011;45045;45.440;9.178;2022-12-10T03:25:36;35.92;;;26.90;;
32399;SDS011;45045;45.440;9.178;2022-12-10T03:28:04;35.65;;;27.30;;
32399;SDS011;45045;45.440;9.178;2022-12-10T03:30:33;36.35;;;27.92;;
32399;SDS011;45045;45.440;9.178;2022-12-10T03:33:02;36.33;;;27.55;;
32399;SDS011;45045;45.440;9.178;2022-12-10T03:35:28;35.20;;;27.60;;
32399;SDS011;45045;45.440;9.178;2022-12-10T03:37:55;36.03;;;26.75;;
32399;SDS011;45045;45.440;9.178;2022-12-10T03:40:21;36.28;;;27.17;;
32399;SDS011;45045;45.440;9.178;2022-12-10T03:42:49;34.88;;;26.25;;
32399;SDS011;45045;45.440;9.178;2022-12-10T03:45:15;36.78;;;27.00;;
32399;SDS011;45045;45.440;9.178;2022-12-10T03:47:41;34.63;;;27.05;;
32399;SDS011;45045;45.440;9.178;2022-12-10T03:50:07;36.10;;;27.63;;
32399;SDS011;45045;45.440;9.178;2022-12-10T03:52:33;37.67;;;27.52;;
32399;SDS011;45045;45.440;9.178;2022-12-10T03:54:59;36.80;;;27.90;;
32399;SDS011;45045;45.440;9.178;2022-12-10T03:57:24;37.35;;;27.95;;
32399;SDS011;45045;45.440;9.178;2022-12-10T03:59:50;37.33;;;27.92;;
32399;SDS011;45045;45.440;9.178;2022-12-10T04:02:15;36.38;;;28.15;;
32399;SDS011;45045;45.440;9.178;2022-12-10T04:04:41;37.78;;;28.45;;
32399;SDS011;45045;45.440;9.178;2022-12-10T04:07:07;34.83;;;27.70;;
32399;SDS011;45045;45.440;9.178;2022-12-10T04:09:32;35.55;;;27.63;;
32399;SDS011;45045;45.440;9.178;2022-12-10T04:11:58;35.95;;;27.23;;
32399;SDS011;45045;45.440;9.178;2022-12-10T04:14:25;37.47;;;28.33;;
32399;SDS011;45045;45.440;9.178;2022-12-10T04:17:10;36.25;;;26.75;;
32399;SDS011;45045;45.440;9.178;2022-12-10T04:19:36;36.63;;;26.98;;
32399;SDS011;45045;45.440;9.178;2022-12-10T04:22:01;34.53;;;26.63;;
32399;SDS011;45045;45.440;9.178;2022-12-10T04:24:46;36.50;;;26.70;;
32399;SDS011;45045;45.440;9.178;2022-12-10T04:27:32;37.42;;;26.13;;
32399;SDS011;45045;45.440;9.178;2022-12-10T04:30:01;33.20;;;25.73;;
32399;SDS011;45045;45.440;9.178;2022-12-10T04:32:28;37.30;;;27.38;;
32399;SDS011;45045;45.440;9.178;2022-12-10T04:34:54;35.67;;;27.25;;
32399;SDS011;45045;45.440;9.178;2022-12-10T04:37:20;37.15;;;27.98;;
32399;SDS011;45045;45.440;9.178;2022-12-10T04:39:48;37.28;;;28.33;;
32399;SDS011;45045;45.440;9.178;2022-12-10T04:42:15;40.53;;;29.88;;
32399;SDS011;45045;45.440;9.178;2022-12-10T04:44:41;39.42;;;29.10;;
32399;SDS011;45045;45.440;9.178;2022-12-10T04:47:07;40.10;;;30.73;;
32399;SDS011;45045;45.440;9.178;2022-12-10T04:49:34;41.03;;;30.95;;
32399;SDS011;45045;45.440;9.178;2022-12-10T04:52:00;41.92;;;31.08;;
32399;SDS011;45045;45.440;9.178;2022-12-10T04:54:26;42.15;;;30.85;;
32399;SDS011;45045;45.440;9.178;2022-12-10T04:56:52;45.92;;;31.38;;
32399;SDS011;45045;45.440;9.178;2022-12-10T04:59:18;44.45;;;31.75;;
32399;SDS011;45045;45.440;9.178;2022-12-10T05:01:44;46.28;;;31.63;;
32399;SDS011;45045;45.440;9.178;2022-12-10T05:04:11;43.40;;;31.45;;
32399;SDS011;45045;45.440;9.178;2022-12-10T05:06:38;47.60;;;31.70;;
32399;SDS011;45045;45.440;9.178;2022-12-10T05:09:04;44.67;;;31.92;;
32399;SDS011;45045;45.440;9.178;2022-12-10T05:11:31;44.75;;;30.75;;
32399;SDS011;45045;45.440;9.178;2022-12-10T05:13:57;42.17;;;30.55;;
32399;SDS011;45045;45.440;9.178;2022-12-10T05:16:23;43.33;;;30.33;;
32399;SDS011;45045;45.440;9.178;2022-12-10T05:18:51;43.28;;;30.75;;
32399;SDS011;45045;45.440;9.178;2022-12-10T05:21:18;44.03;;;30.73;;
32399;SDS011;45045;45.440;9.178;2022-12-10T05:23:46;41.58;;;29.65;;
32399;SDS011;45045;45.440;9.178;2022-12-10T05:26:17;41.67;;;29.23;;
32399;SDS011;45045;45.440;9.178;2022-12-10T05:31:16;41.47;;;30.55;;
32399;SDS011;45045;45.440;9.178;2022-12-10T05:33:43;42.97;;;30.00;;
32399;SDS011;45045;45.440;9.178;2022-12-10T05:36:09;41.97;;;29.23;;
32399;SDS011;45045;45.440;9.178;2022-12-10T05:38:37;41.45;;;30.10;;
32399;SDS011;45045;45.440;9.178;2022-12-10T05:41:05;42.33;;;28.45;;
32399;SDS011;45045;45.440;9.178;2022-12-10T05:43:36;43.25;;;29.40;;
32399;SDS011;45045;45.440;9.178;2022-12-10T05:46:06;43.65;;;30.33;;
32399;SDS011;45045;45.440;9.178;2022-12-10T05:48:34;41.30;;;28.80;;
32399;SDS011;45045;45.440;9.178;2022-12-10T05:51:07;42.70;;;28.67;;
32399;SDS011;45045;45.440;9.178;2022-12-10T05:53:35;44.22;;;30.15;;
32399;SDS011;45045;45.440;9.178;2022-12-10T05:56:10;43.33;;;30.15;;
32399;SDS011;45045;45.440;9.178;2022-12-10T05:58:38;46.70;;;31.13;;
32399;SDS011;45045;45.440;9.178;2022-12-10T06:01:05;47.03;;;31.75;;
32399;SDS011;45045;45.440;9.178;2022-12-10T06:03:32;50.95;;;32.72;;
32399;SDS011;45045;45.440;9.178;2022-12-10T06:05:58;50.65;;;32.78;;
32399;SDS011;45045;45.440;9.178;2022-12-10T06:08:24;51.15;;;32.33;;
32399;SDS011;45045;45.440;9.178;2022-12-10T06:10:49;48.40;;;31.00;;
32399;SDS011;45045;45.440;9.178;2022-12-10T06:13:15;54.10;;;33.13;;
32399;SDS011;45045;45.440;9.178;2022-12-10T06:15:41;49.50;;;32.67;;
32399;SDS011;45045;45.440;9.178;2022-12-10T06:18:07;51.70;;;32.75;;
32399;SDS011;45045;45.440;9.178;2022-12-10T06:20:32;49.25;;;31.17;;
32399;SDS011;45045;45.440;9.178;2022-12-10T06:22:58;48.03;;;31.52;;
32399;SDS011;45045;45.440;9.178;2022-12-10T06:25:24;50.28;;;31.20;;
32399;SDS011;45045;45.440;9.178;2022-12-10T06:27:49;50.38;;;32.17;;
32399;SDS011;45045;45.440;9.178;2022-12-10T06:30:15;49.58;;;30.98;;
32399;SDS011;45045;45.440;9.178;2022-12-10T06:32:41;47.60;;;30.13;;
32399;SDS011;45045;45.440;9.178;2022-12-10T06:35:08;47.10;;;29.80;;
32399;SDS011;45045;45.440;9.178;2022-12-10T06:37:34;49.03;;;30.30;;
32399;SDS011;45045;45.440;9.178;2022-12-10T06:40:00;46.67;;;29.52;;
32399;SDS011;45045;45.440;9.178;2022-12-10T06:42:25;44.30;;;29.85;;
32399;SDS011;45045;45.440;9.178;2022-12-10T06:44:51;45.67;;;28.45;;
32399;SDS011;45045;45.440;9.178;2022-12-10T06:47:16;46.42;;;29.02;;
32399;SDS011;45045;45.440;9.178;2022-12-10T06:49:42;44.65;;;29.25;;
32399;SDS011;45045;45.440;9.178;2022-12-10T06:52:08;43.92;;;28.85;;
32399;SDS011;45045;45.440;9.178;2022-12-10T06:54:33;46.50;;;29.80;;
32399;SDS011;45045;45.440;9.178;2022-12-10T06:56:59;43.20;;;28.60;;
32399;SDS011;45045;45.440;9.178;2022-12-10T06:59:24;46.80;;;29.40;;
32399;SDS011;45045;45.440;9.178;2022-12-10T07:01:50;44.20;;;28.23;;
32399;SDS011;45045;45.440;9.178;2022-12-10T07:04:16;43.20;;;27.95;;
32399;SDS011;45045;45.440;9.178;2022-12-10T07:06:42;42.22;;;28.70;;
32399;SDS011;45045;45.440;9.178;2022-12-10T07:09:08;45.80;;;29.63;;
32399;SDS011;45045;45.440;9.178;2022-12-10T07:11:34;43.60;;;29.63;;
32399;SDS011;45045;45.440;9.178;2022-12-10T07:14:01;46.38;;;30.38;;
32399;SDS011;45045;45.440;9.178;2022-12-10T07:16:28;44.97;;;29.50;;
32399;SDS011;45045;45.440;9.178;2022-12-10T07:18:55;48.10;;;30.40;;
32399;SDS011;45045;45.440;9.178;2022-12-10T07:21:32;48.20;;;30.13;;
32399;SDS011;45045;45.440;9.178;2022-12-10T07:24:01;46.92;;;29.77;;
32399;SDS011;45045;45.440;9.178;2022-12-10T07:26:29;46.58;;;29.80;;
32399;SDS011;45045;45.440;9.178;2022-12-10T07:28:56;52.00;;;30.77;;
32399;SDS011;45045;45.440;9.178;2022-12-10T07:31:23;51.50;;;32.08;;
32399;SDS011;45045;45.440;9.178;2022-12-10T07:33:48;46.80;;;30.40;;
32399;SDS011;45045;45.440;9.178;2022-12-10T07:36:15;52.63;;;31.73;;
32399;SDS011;45045;45.440;9.178;2022-12-10T07:38:41;50.75;;;30.85;;
32399;SDS011;45045;45.440;9.178;2022-12-10T07:41:08;49.40;;;31.20;;
32399;SDS011;45045;45.440;9.178;2022-12-10T07:43:36;49.70;;;30.73;;
32399;SDS011;45045;45.440;9.178;2022-12-10T07:46:04;53.70;;;32.53;;
32399;SDS011;45045;45.440;9.178;2022-12-10T07:48:33;48.40;;;30.70;;
32399;SDS011;45045;45.440;9.178;2022-12-10T07:50:59;51.38;;;32.08;;
32399;SDS011;45045;45.440;9.178;2022-12-10T07:53:25;51.85;;;31.42;;
32399;SDS011;45045;45.440;9.178;2022-12-10T07:55:50;49.92;;;30.98;;
32399;SDS011;45045;45.440;9.178;2022-12-10T07:58:16;55.10;;;33.08;;
32399;SDS011;45045;45.440;9.178;2022-12-10T08:00:42;50.05;;;32.70;;
32399;SDS011;45045;45.440;9.178;2022-12-10T08:03:07;55.67;;;33.78;;
32399;SDS011;45045;45.440;9.178;2022-12-10T08:05:33;53.05;;;32.38;;
32399;SDS011;45045;45.440;9.178;2022-12-10T08:07:58;52.38;;;31.90;;
32399;SDS011;45045;45.440;9.178;2022-12-10T08:10:24;53.00;;;32.28;;
32399;SDS011;45045;45.440;9.178;2022-12-10T08:12:50;51.15;;;29.50;;
32399;SDS011;45045;45.440;9.178;2022-12-10T08:15:15;45.35;;;28.17;;
32399;SDS011;45045;45.440;9.178;2022-12-10T08:17:41;48.67;;;29.15;;
32399;SDS011;45045;45.440;9.178;2022-12-10T08:20:07;50.90;;;30.52;;
32399;SDS011;45045;45.440;9.178;2022-12-10T08:22:33;49.60;;;30.20;;
32399;SDS011;45045;45.440;9.178;2022-12-10T08:25:00;48.83;;;30.35;;
32399;SDS011;45045;45.440;9.178;2022-12-10T08:27:26;48.35;;;30.33;;
32399;SDS011;45045;45.440;9.178;2022-12-10T08:29:52;58.17;;;32.25;;
32399;SDS011;45045;45.440;9.178;2022-12-10T08:32:17;51.13;;;31.63;;
32399;SDS011;45045;45.440;9.178;2022-12-10T08:34:44;51.40;;;32.92;;
32399;SDS011;45045;45.440;9.178;2022-12-10T08:37:09;53.92;;;31.00;;
32399;SDS011;45045;45.440;9.178;2022-12-10T08:39:35;51.75;;;32.28;;
32399;SDS011;45045;45.440;9.178;2022-12-10T08:42:01;56.03;;;32.22;;
32399;SDS011;45045;45.440;9.178;2022-12-10T08:44:27;53.60;;;33.05;;
32399;SDS011;45045;45.440;9.178;2022-12-10T08:46:52;53.70;;;32.78;;
32399;SDS011;45045;45.440;9.178;2022-12-10T08:49:18;53.95;;;32.83;;
32399;SDS011;45045;45.440;9.178;2022-12-10T08:51:44;56.30;;;32.38;;
32399;SDS011;45045;45.440;9.178;2022-12-10T08:54:09;52.13;;;32.25;;
32399;SDS011;45045;45.440;9.178;2022-12-10T08:56:35;54.75;;;33.97;;
32399;SDS011;45045;45.440;9.178;2022-12-10T08:59:01;53.80;;;32.40;;
32399;SDS011;45045;45.440;9.178;2022-12-10T09:01:27;53.42;;;32.80;;
32399;SDS011;45045;45.440;9.178;2022-12-10T09:03:52;55.50;;;32.10;;
32399;SDS011;45045;45.440;9.178;2022-12-10T09:06:19;53.50;;;32.53;;
32399;SDS011;45045;45.440;9.178;2022-12-10T09:08:46;52.88;;;32.88;;
32399;SDS011;45045;45.440;9.178;2022-12-10T09:11:28;52.00;;;32.75;;
32399;SDS011;45045;45.440;9.178;2022-12-10T09:13:56;52.28;;;30.67;;
32399;SDS011;45045;45.440;9.178;2022-12-10T09:16:33;56.35;;;32.85;;
32399;SDS011;45045;45.440;9.178;2022-12-10T09:19:00;52.97;;;31.58;;
32399;SDS011;45045;45.440;9.178;2022-12-10T09:21:26;54.15;;;32.22;;
32399;SDS011;45045;45.440;9.178;2022-12-10T09:23:52;55.30;;;31.73;;
32399;SDS011;45045;45.440;9.178;2022-12-10T09:26:18;53.78;;;32.13;;
32399;SDS011;45045;45.440;9.178;2022-12-10T09:28:45;55.13;;;31.27;;
32399;SDS011;45045;45.440;9.178;2022-12-10T09:31:15;54.83;;;32.38;;
32399;SDS011;45045;45.440;9.178;2022-12-10T09:33:42;56.85;;;32.97;;
32399;SDS011;45045;45.440;9.178;2022-12-10T09:36:09;53.45;;;31.17;;
32399;SDS011;45045;45.440;9.178;2022-12-10T09:38:40;56.45;;;31.48;;
32399;SDS011;45045;45.440;9.178;2022-12-10T09:53:53;54.10;;;31.30;;
32399;SDS011;45045;45.440;9.178;2022-12-10T09:56:24;55.28;;;32.40;;
32399;SDS011;45045;45.440;9.178;2022-12-10T09:58:59;52.90;;;31.02;;
32399;SDS011;45045;45.440;9.178;2022-12-10T10:01:31;55.63;;;30.92;;
32399;SDS011;45045;45.440;9.178;2022-12-10T10:03:59;51.60;;;30.65;;
32399;SDS011;45045;45.440;9.178;2022-12-10T10:06:27;53.22;;;31.27;;
32399;SDS011;45045;45.440;9.178;2022-12-10T10:08:55;56.20;;;32.97;;
32399;SDS011;45045;45.440;9.178;2022-12-10T10:11:24;59.13;;;32.30;;
32399;SDS011;45045;45.440;9.178;2022-12-10T10:13:54;57.38;;;32.90;;
32399;SDS011;45045;45.440;9.178;2022-12-10T10:16:27;57.42;;;33.67;;
32399;SDS011;45045;45.440;9.178;2022-12-10T10:19:01;54.25;;;30.65;;
32399;SDS011;45045;45.440;9.178;2022-12-10T10:21:33;49.58;;;29.25;;
32399;SDS011;45045;45.440;9.178;2022-12-10T10:24:01;46.13;;;28.25;;
32399;SDS011;45045;45.440;9.178;2022-12-10T10:26:28;48.67;;;29.10;;
32399;SDS011;45045;45.440;9.178;2022-12-10T10:28:55;47.45;;;29.23;;
32399;SDS011;45045;45.440;9.178;2022-12-10T10:31:26;51.78;;;31.00;;
32399;SDS011;45045;45.440;9.178;2022-12-10T10:33:58;49.13;;;28.63;;
32399;SDS011;45045;45.440;9.178;2022-12-10T10:36:29;48.67;;;29.08;;
32399;SDS011;45045;45.440;9.178;2022-12-10T10:39:08;49.75;;;28.40;;
32399;SDS011;45045;45.440;9.178;2022-12-10T10:41:36;52.83;;;30.02;;
32399;SDS011;45045;45.440;9.178;2022-12-10T10:44:04;55.58;;;32.97;;
32399;SDS011;45045;45.440;9.178;2022-12-10T10:46:36;54.85;;;31.30;;
32399;SDS011;45045;45.440;9.178;2022-12-10T10:52:00;86.65;;;57.03;;
32399;SDS011;45045;45.440;9.178;2022-12-10T10:54:32;62.58;;;39.65;;
32399;SDS011;45045;45.440;9.178;2022-12-10T10:57:15;55.20;;;31.38;;
32399;SDS011;45045;45.440;9.178;2022-12-10T10:59:52;55.47;;;31.88;;
32399;SDS011;45045;45.440;9.178;2022-12-10T11:02:24;51.85;;;31.73;;
32399;SDS011;45045;45.440;9.178;2022-12-10T11:04:54;54.50;;;31.70;;
32399;SDS011;45045;45.440;9.178;2022-12-10T11:09:58;54.42;;;31.02;;
32399;SDS011;45045;45.440;9.178;2022-12-10T11:12:29;53.13;;;31.05;;
32399;SDS011;45045;45.440;9.178;2022-12-10T11:14:55;54.72;;;33.10;;
32399;SDS011;45045;45.440;9.178;2022-12-10T11:17:22;55.35;;;32.25;;
32399;SDS011;45045;45.440;9.178;2022-12-10T11:22:26;52.03;;;31.52;;
32399;SDS011;45045;45.440;9.178;2022-12-10T11:24:56;47.95;;;29.75;;
32399;SDS011;45045;45.440;9.178;2022-12-10T11:27:36;44.28;;;27.27;;
32399;SDS011;45045;45.440;9.178;2022-12-10T11:30:18;44.63;;;28.05;;
32399;SDS011;45045;45.440;9.178;2022-12-10T11:35:54;39.75;;;24.98;;
32399;SDS011;45045;45.440;9.178;2022-12-10T11:38:42;41.92;;;26.55;;
32399;SDS011;45045;45.440;9.178;2022-12-10T11:41:34;38.72;;;24.08;;
32399;SDS011;45045;45.440;9.178;2022-12-10T11:46:52;37.22;;;23.42;;
32399;SDS011;45045;45.440;9.178;2022-12-10T11:49:28;34.53;;;22.25;;
32399;SDS011;45045;45.440;9.178;2022-12-10T11:57:49;39.75;;;24.88;;
32399;SDS011;45045;45.440;9.178;2022-12-10T12:00:19;35.25;;;24.48;;
32399;SDS011;45045;45.440;9.178;2022-12-10T12:02:51;35.63;;;24.63;;
32399;SDS011;45045;45.440;9.178;2022-12-10T12:16:35;38.53;;;24.95;;
32399;SDS011;45045;45.440;9.178;2022-12-10T12:19:09;36.83;;;25.85;;
32399;SDS011;45045;45.440;9.178;2022-12-10T12:21:39;40.90;;;26.77;;
32399;SDS011;45045;45.440;9.178;2022-12-10T12:27:25;38.63;;;27.23;;
32399;SDS011;45045;45.440;9.178;2022-12-10T12:30:06;40.72;;;27.90;;
32399;SDS011;45045;45.440;9.178;2022-12-10T12:35:52;37.67;;;25.83;;
32399;SDS011;45045;45.440;9.178;2022-12-10T12:41:07;38.17;;;26.95;;
32399;SDS011;45045;45.440;9.178;2022-12-10T12:43:42;37.78;;;26.23;;
32399;SDS011;45045;45.440;9.178;2022-12-10T12:46:44;36.63;;;25.45;;
32399;SDS011;45045;45.440;9.178;2022-12-10T12:49:27;43.47;;;29.30;;
32399;SDS011;45045;45.440;9.178;2022-12-10T12:52:01;40.55;;;28.75;;
32399;SDS011;45045;45.440;9.178;2022-12-10T12:54:38;38.05;;;26.67;;
32399;SDS011;45045;45.440;9.178;2022-12-10T12:57:24;42.65;;;30.85;;
32399;SDS011;45045;45.440;9.178;2022-12-10T13:00:05;35.88;;;26.35;;
32399;SDS011;45045;45.440;9.178;2022-12-10T13:05:15;39.22;;;27.25;;
32399;SDS011;45045;45.440;9.178;2022-12-10T13:10:52;40.13;;;28.60;;
32399;SDS011;45045;45.440;9.178;2022-12-10T13:15:56;42.78;;;28.80;;
32399;SDS011;45045;45.440;9.178;2022-12-10T13:29:54;41.75;;;28.50;;
32399;SDS011;45045;45.440;9.178;2022-12-10T13:37:54;39.75;;;26.35;;
32399;SDS011;45045;45.440;9.178;2022-12-10T13:40:26;38.38;;;27.30;;
32399;SDS011;45045;45.440;9.178;2022-12-10T13:48:55;38.65;;;27.02;;
32399;SDS011;45045;45.440;9.178;2022-12-10T13:54:23;32.67;;;23.40;;
32399;SDS011;45045;45.440;9.178;2022-12-10T14:05:27;35.47;;;23.67;;
32399;SDS011;45045;45.440;9.178;2022-12-10T14:08:08;35.63;;;25.13;;
32399;SDS011;45045;45.440;9.178;2022-12-10T14:10:41;34.17;;;25.02;;
32399;SDS011;45045;45.440;9.178;2022-12-10T14:13:10;34.45;;;24.27;;
32399;SDS011;45045;45.440;9.178;2022-12-10T14:15:38;34.63;;;24.42;;
32399;SDS011;45045;45.440;9.178;2022-12-10T14:18:11;34.78;;;23.35;;
32399;SDS011;45045;45.440;9.178;2022-12-10T14:20:39;33.65;;;23.52;;
32399;SDS011;45045;45.440;9.178;2022-12-10T14:26:10;30.13;;;21.77;;
32399;SDS011;45045;45.440;9.178;2022-12-10T14:28:42;30.40;;;21.80;;
32399;SDS011;45045;45.440;9.178;2022-12-10T14:31:17;29.63;;;21.77;;
32399;SDS011;45045;45.440;9.178;2022-12-10T14:33:46;30.30;;;21.48;;
32399;SDS011;45045;45.440;9.178;2022-12-10T14:36:15;30.17;;;21.30;;
32399;SDS011;45045;45.440;9.178;2022-12-10T14:38:51;30.92;;;21.42;;
32399;SDS011;45045;45.440;9.178;2022-12-10T14:41:19;30.75;;;22.65;;
32399;SDS011;45045;45.440;9.178;2022-12-10T14:43:47;29.42;;;21.10;;
32399;SDS011;45045;45.440;9.178;2022-12-10T14:46:14;29.65;;;21.38;;
32399;SDS011;45045;45.440;9.178;2022-12-10T14:48:48;31.70;;;21.90;;
32399;SDS011;45045;45.440;9.178;2022-12-10T14:51:16;30.33;;;21.60;;
32399;SDS011;45045;45.440;9.178;2022-12-10T14:53:44;30.38;;;21.48;;
32399;SDS011;45045;45.440;9.178;2022-12-10T14:56:14;29.60;;;21.77;;
32399;SDS011;45045;45.440;9.178;2022-12-10T14:58:46;34.33;;;23.85;;
32399;SDS011;45045;45.440;9.178;2022-12-10T15:01:31;33.42;;;24.60;;
32399;SDS011;45045;45.440;9.178;2022-12-10T15:04:01;33.72;;;24.27;;
32399;SDS011;45045;45.440;9.178;2022-12-10T15:06:32;31.77;;;22.95;;
32399;SDS011;45045;45.440;9.178;2022-12-10T15:09:00;32.03;;;22.00;;
32399;SDS011;45045;45.440;9.178;2022-12-10T15:11:26;60.90;;;44.00;;
32399;SDS011;45045;45.440;9.178;2022-12-10T15:13:54;35.83;;;25.25;;
32399;SDS011;45045;45.440;9.178;2022-12-10T15:16:28;28.58;;;21.05;;
32399;SDS011;45045;45.440;9.178;2022-12-10T15:21:50;28.80;;;20.55;;
32399;SDS011;45045;45.440;9.178;2022-12-10T15:24:36;30.23;;;22.38;;
32399;SDS011;45045;45.440;9.178;2022-12-10T15:27:24;29.08;;;20.70;;
32399;SDS011;45045;45.440;9.178;2022-12-10T15:29:51;34.15;;;24.95;;
32399;SDS011;45045;45.440;9.178;2022-12-10T15:32:22;30.88;;;21.77;;
32399;SDS011;45045;45.440;9.178;2022-12-10T15:34:55;33.15;;;22.67;;
32399;SDS011;45045;45.440;9.178;2022-12-10T15:37:25;30.45;;;22.05;;
32399;SDS011;45045;45.440;9.178;2022-12-10T15:39:57;38.17;;;26.10;;
32399;SDS011;45045;45.440;9.178;2022-12-10T15:42:43;31.45;;;22.35;;
32399;SDS011;45045;45.440;9.178;2022-12-10T15:47:50;37.17;;;26.30;;
32399;SDS011;45045;45.440;9.178;2022-12-10T15:50:17;41.05;;;26.98;;
32399;SDS011;45045;45.440;9.178;2022-12-10T15:52:43;37.90;;;25.55;;
32399;SDS011;45045;45.440;9.178;2022-12-10T15:55:10;38.38;;;24.55;;
32399;SDS011;45045;45.440;9.178;2022-12-10T15:57:37;32.95;;;23.83;;
32399;SDS011;45045;45.440;9.178;2022-12-10T16:00:13;37.72;;;26.30;;
32399;SDS011;45045;45.440;9.178;2022-12-10T16:02:50;40.38;;;29.17;;
32399;SDS011;45045;45.440;9.178;2022-12-10T16:05:23;41.60;;;28.50;;
32399;SDS011;45045;45.440;9.178;2022-12-10T16:07:49;34.63;;;24.55;;
32399;SDS011;45045;45.440;9.178;2022-12-10T16:10:18;36.75;;;25.95;;
32399;SDS011;45045;45.440;9.178;2022-12-10T16:12:45;39.55;;;27.35;;
32399;SDS011;45045;45.440;9.178;2022-12-10T16:15:23;37.80;;;26.20;;
32399;SDS011;45045;45.440;9.178;2022-12-10T16:17:51;40.58;;;30.05;;
32399;SDS011;45045;45.440;9.178;2022-12-10T16:20:22;37.03;;;26.95;;
32399;SDS011;45045;45.440;9.178;2022-12-10T16:22:51;35.28;;;26.60;;
32399;SDS011;45045;45.440;9.178;2022-12-10T16:25:17;40.33;;;28.77;;
32399;SDS011;45045;45.440;9.178;2022-12-10T16:27:43;56.80;;;36.42;;
32399;SDS011;45045;45.440;9.178;2022-12-10T16:30:11;65.68;;;42.47;;
32399;SDS011;45045;45.440;9.178;2022-12-10T16:32:46;51.90;;;34.92;;
32399;SDS011;45045;45.440;9.178;2022-12-10T16:35:12;44.13;;;29.63;;
32399;SDS011;45045;45.440;9.178;2022-12-10T16:37:42;41.92;;;29.05;;
32399;SDS011;45045;45.440;9.178;2022-12-10T16:40:10;47.28;;;33.05;;
32399;SDS011;45045;45.440;9.178;2022-12-10T16:42:38;41.25;;;29.80;;
32399;SDS011;45045;45.440;9.178;2022-12-10T16:45:13;38.80;;;28.40;;
32399;SDS011;45045;45.440;9.178;2022-12-10T16:47:40;40.35;;;28.60;;